Time;durP1;ratioP1;P1;durP2;ratioP2;P2;SDS_P1;SDS_P2;PMS_P1;PMS_P2;Temp;Humidity;BMP_temperature;BMP_pressure;BME280_temperature;BME280_humidity;BME280_pressure;Samples;Min_cycle;Max_cycle;Signal;HPM_P1;HPM_P2
2023/11/25 00:02:20;;;;;;;;;;;16.70;66.90;;;;;;5104426;28;19908;-35
2023/11/25 00:04:46;;;;;;;;;;;16.60;66.90;;;;;;5104812;28;19920;-35
2023/11/25 00:07:12;;;;;;;;;;;16.60;66.90;;;;;;5104591;28;19912;-35
2023/11/25 00:09:38;;;;;;;;;;;16.60;66.90;;;;;;5104917;28;19919;-35
2023/11/25 00:12:04;;;;;;;;;;;16.60;67.60;;;;;;5104351;28;19908;-36
2023/11/25 00:14:30;;;;;;;;;;;16.60;66.90;;;;;;5104672;28;19972;-37
2023/11/25 00:16:55;;;;;;;;;;;16.60;66.90;;;;;;5104519;28;19907;-35
2023/11/25 00:19:21;;;;;;;;;;;16.60;66.90;;;;;;5103849;28;19919;-36
2023/11/25 00:21:47;;;;;;;;;;;16.50;66.90;;;;;;5105119;28;19912;-36
2023/11/25 00:24:13;;;;;;;;;;;16.50;66.90;;;;;;5104928;28;19915;-36
2023/11/25 00:26:39;;;;;;;;;;;16.50;67.00;;;;;;5104825;28;20338;-36
2023/11/25 00:29:05;;;;;;;;;;;16.50;67.00;;;;;;5104594;28;20288;-36
2023/11/25 00:31:32;;;;;;;;;;;16.50;66.90;;;;;;5106157;28;19912;-35
2023/11/25 00:33:58;;;;;;;;;;;16.50;66.90;;;;;;5103870;28;19916;-35
2023/11/25 00:36:24;;;;;;;;;;;16.50;67.00;;;;;;5104470;28;20045;-35
2023/11/25 00:38:50;;;;;;;;;;;16.40;67.00;;;;;;5104641;28;19912;-35
2023/11/25 00:41:16;;;;;;;;;;;16.40;67.00;;;;;;5104534;28;20386;-35
2023/11/25 00:43:42;;;;;;;;;;;16.40;67.20;;;;;;5106047;28;20337;-35
2023/11/25 00:46:08;;;;;;;;;;;16.40;67.10;;;;;;5104394;28;19919;-35
2023/11/25 00:48:35;;;;;;;;;;;16.40;67.20;;;;;;5104416;28;19919;-35
2023/11/25 00:51:01;;;;;;;;;;;16.40;67.20;;;;;;5104295;28;19936;-35
2023/11/25 00:53:27;;;;;;;;;;;16.30;67.10;;;;;;5104315;28;19916;-35
2023/11/25 00:55:53;;;;;;;;;;;16.30;67.10;;;;;;5103410;28;19912;-35
2023/11/25 00:58:18;;;;;;;;;;;16.30;67.10;;;;;;5101822;28;19909;-35
2023/11/25 01:00:44;;;;;;;;;;;16.30;67.20;;;;;;5102692;28;19916;-36
2023/11/25 01:03:10;;;;;;;;;;;16.30;67.20;;;;;;5101204;28;19950;-35
2023/11/25 01:05:36;;;;;;;;;;;16.20;67.20;;;;;;5102133;28;20433;-35
2023/11/25 01:08:02;;;;;;;;;;;16.20;67.30;;;;;;5103599;28;20413;-35
2023/11/25 01:10:28;;;;;;;;;;;16.20;67.30;;;;;;5102766;28;20272;-35
2023/11/25 01:12:54;;;;;;;;;;;16.20;67.30;;;;;;5102462;28;19919;-35
2023/11/25 01:15:19;;;;;;;;;;;16.20;67.30;;;;;;5102600;28;19995;-35
2023/11/25 01:17:45;;;;;;;;;;;16.20;67.30;;;;;;5103200;28;19912;-35
2023/11/25 01:20:13;;;;;;;;;;;16.20;67.40;;;;;;5096421;28;19912;-35
2023/11/25 01:22:39;;;;;;;;;;;16.10;67.40;;;;;;5102982;28;20402;-35
2023/11/25 01:25:06;;;;;;;;;;;16.10;67.40;;;;;;5087124;28;19988;-35
2023/11/25 01:27:33;;;;;;;;;;;16.10;67.40;;;;;;5103084;28;19928;-35
2023/11/25 01:29:59;;;;;;;;;;;16.10;67.50;;;;;;5102133;28;19927;-35
2023/11/25 01:32:25;;;;;;;;;;;16.10;67.50;;;;;;5102597;28;19915;-35
2023/11/25 01:34:51;;;;;;;;;;;16.10;67.60;;;;;;5103194;28;19920;-35
2023/11/25 01:37:17;;;;;;;;;;;16.10;67.60;;;;;;5103489;28;19951;-35
2023/11/25 01:39:43;;;;;;;;;;;16.00;67.60;;;;;;5102617;28;19915;-35
2023/11/25 01:42:09;;;;;;;;;;;16.00;67.60;;;;;;5100993;28;19912;-36
2023/11/25 01:44:35;;;;;;;;;;;16.00;67.60;;;;;;5093635;28;19931;-35
2023/11/25 01:47:01;;;;;;;;;;;16.00;67.70;;;;;;5083865;28;19953;-35
2023/11/25 01:49:28;;;;;;;;;;;16.00;67.80;;;;;;5107706;28;19912;-35
2023/11/25 01:51:54;;;;;;;;;;;16.00;67.70;;;;;;5095988;28;19911;-35
2023/11/25 01:54:20;;;;;;;;;;;15.90;67.70;;;;;;5094606;28;19916;-36
2023/11/25 01:56:48;;;;;;;;;;;15.90;67.60;;;;;;5119176;28;19931;-35
2023/11/25 01:59:15;;;;;;;;;;;15.90;67.80;;;;;;5115986;28;19915;-35
2023/11/25 02:01:43;;;;;;;;;;;15.90;67.70;;;;;;5097725;28;20010;-35
2023/11/25 02:04:09;;;;;;;;;;;15.90;67.80;;;;;;5102279;28;19919;-35
2023/11/25 02:06:36;;;;;;;;;;;15.90;67.80;;;;;;5095158;28;19911;-35
2023/11/25 02:09:03;;;;;;;;;;;15.90;67.80;;;;;;5102265;28;20404;-35
2023/11/25 02:11:29;;;;;;;;;;;15.80;67.70;;;;;;5091816;28;19944;-35
2023/11/25 02:13:55;;;;;;;;;;;15.80;67.80;;;;;;5091413;28;19927;-35
2023/11/25 02:16:21;;;;;;;;;;;15.80;67.80;;;;;;5105332;28;19979;-35
2023/11/25 02:18:48;;;;;;;;;;;15.80;67.90;;;;;;5099231;28;19918;-35
2023/11/25 02:21:14;;;;;;;;;;;15.80;68.00;;;;;;5106902;28;19974;-35
2023/11/25 02:23:41;;;;;;;;;;;15.80;67.90;;;;;;5107102;28;19954;-35
2023/11/25 02:26:08;;;;;;;;;;;15.80;68.00;;;;;;5112632;28;19938;-35
2023/11/25 02:28:35;;;;;;;;;;;15.70;68.00;;;;;;5106648;28;19912;-36
2023/11/25 02:31:02;;;;;;;;;;;15.70;67.90;;;;;;5106678;28;19915;-35
2023/11/25 02:33:31;;;;;;;;;;;15.70;68.00;;;;;;5099158;28;20365;-35
2023/11/25 02:35:57;;;;;;;;;;;15.70;68.00;;;;;;5100186;28;19919;-35
2023/11/25 02:38:23;;;;;;;;;;;15.70;68.00;;;;;;5103303;28;19980;-35
2023/11/25 02:40:48;;;;;;;;;;;15.70;68.10;;;;;;5105947;28;19911;-35
2023/11/25 02:43:16;;;;;;;;;;;15.60;68.00;;;;;;5101124;28;19924;-35
2023/11/25 02:45:42;;;;;;;;;;;15.60;68.10;;;;;;5098140;28;19984;-35
2023/11/25 02:48:09;;;;;;;;;;;15.60;68.10;;;;;;5098076;28;19912;-35
2023/11/25 02:50:35;;;;;;;;;;;15.60;68.10;;;;;;5106295;28;19944;-35
2023/11/25 02:53:01;;;;;;;;;;;15.60;68.10;;;;;;5106293;28;20007;-35
2023/11/25 02:55:27;;;;;;;;;;;15.60;68.20;;;;;;5106173;28;19911;-35
2023/11/25 02:57:53;;;;;;;;;;;15.60;68.20;;;;;;5106277;28;20400;-35
2023/11/25 03:02:59;;;;;;;;;;;15.50;68.10;;;;;;5082058;28;19919;-35
2023/11/25 03:05:31;;;;;;;;;;;15.50;68.20;;;;;;5098404;28;19971;-35
2023/11/25 03:07:57;;;;;;;;;;;15.50;68.20;;;;;;5105957;28;19908;-35
2023/11/25 03:10:23;;;;;;;;;;;15.50;68.30;;;;;;5098509;28;19912;-35
2023/11/25 03:12:50;;;;;;;;;;;15.50;68.20;;;;;;5106272;28;19991;-35
2023/11/25 03:15:15;;;;;;;;;;;15.50;68.40;;;;;;5105280;28;19923;-35
2023/11/25 03:17:41;;;;;;;;;;;15.40;68.30;;;;;;5100174;28;19913;-35
2023/11/25 03:20:08;;;;;;;;;;;15.40;68.30;;;;;;5103498;28;19923;-35
2023/11/25 03:22:34;;;;;;;;;;;15.40;68.30;;;;;;5105875;28;19912;-35
2023/11/25 03:25:01;;;;;;;;;;;15.40;68.30;;;;;;5105631;28;19953;-35
2023/11/25 03:27:28;;;;;;;;;;;15.40;68.40;;;;;;5086298;28;20766;-35
2023/11/25 03:29:54;;;;;;;;;;;15.40;68.40;;;;;;5105637;28;20450;-35
2023/11/25 03:32:21;;;;;;;;;;;15.40;69.10;;;;;;5105144;28;19912;-35
2023/11/25 03:34:46;;;;;;;;;;;15.40;68.40;;;;;;5107110;28;19983;-35
2023/11/25 03:37:13;;;;;;;;;;;15.30;68.40;;;;;;5104731;28;19969;-35
2023/11/25 03:39:39;;;;;;;;;;;15.30;68.40;;;;;;5106139;28;19912;-35
2023/11/25 03:42:05;;;;;;;;;;;15.30;68.50;;;;;;5104911;28;19957;-35
2023/11/25 03:44:31;;;;;;;;;;;15.30;68.50;;;;;;5104832;28;19960;-34
2023/11/25 03:46:57;;;;;;;;;;;15.30;68.50;;;;;;5097518;28;19911;-34
2023/11/25 03:49:24;;;;;;;;;;;15.30;68.50;;;;;;5105284;28;19939;-34
2023/11/25 03:51:50;;;;;;;;;;;15.20;68.50;;;;;;5105485;28;19912;-35
2023/11/25 03:54:16;;;;;;;;;;;15.20;68.50;;;;;;5087159;28;19924;-34
2023/11/25 03:56:42;;;;;;;;;;;15.20;68.50;;;;;;5104957;28;20030;-34
2023/11/25 03:59:08;;;;;;;;;;;15.20;68.90;;;;;;5104644;28;19919;-35
2023/11/25 04:01:34;;;;;;;;;;;15.20;68.60;;;;;;5104776;28;19963;-35
2023/11/25 04:04:01;;;;;;;;;;;15.10;68.50;;;;;;5104742;28;19919;-34
2023/11/25 04:06:27;;;;;;;;;;;15.20;68.50;;;;;;5104984;28;19912;-34
2023/11/25 04:08:53;;;;;;;;;;;15.20;68.60;;;;;;5105268;28;19919;-34
2023/11/25 04:11:19;;;;;;;;;;;15.10;68.50;;;;;;5104117;28;19912;-34
2023/11/25 04:13:46;;;;;;;;;;;15.10;68.50;;;;;;5104674;28;19924;-37
2023/11/25 04:16:12;;;;;;;;;;;15.10;68.60;;;;;;5104454;28;19959;-34
2023/11/25 04:18:38;;;;;;;;;;;15.10;68.60;;;;;;5104941;28;19919;-34
2023/11/25 04:21:07;;;;;;;;;;;15.10;68.70;;;;;;5104654;28;19908;-35
2023/11/25 04:23:33;;;;;;;;;;;15.10;68.70;;;;;;5104760;28;19912;-35
2023/11/25 04:25:59;;;;;;;;;;;15.00;68.60;;;;;;5104032;28;20002;-35
2023/11/25 04:28:24;;;;;;;;;;;15.00;68.60;;;;;;5078311;28;19916;-34
2023/11/25 04:30:52;;;;;;;;;;;15.00;68.70;;;;;;5104369;28;19919;-35
2023/11/25 04:33:18;;;;;;;;;;;15.00;68.70;;;;;;5103473;28;20003;-35
2023/11/25 04:35:45;;;;;;;;;;;15.00;68.80;;;;;;5105773;28;19914;-35
2023/11/25 04:38:11;;;;;;;;;;;15.00;68.80;;;;;;5102947;28;19908;-35
2023/11/25 04:40:37;;;;;;;;;;;15.00;68.70;;;;;;5104282;28;19943;-34
2023/11/25 04:43:03;;;;;;;;;;;14.90;68.70;;;;;;5103423;28;19983;-34
2023/11/25 04:45:29;;;;;;;;;;;14.90;68.80;;;;;;5106630;28;19916;-35
2023/11/25 04:47:55;;;;;;;;;;;14.90;68.80;;;;;;5103762;28;20475;-35
2023/11/25 04:50:21;;;;;;;;;;;14.90;68.80;;;;;;5103561;28;19916;-35
2023/11/25 04:52:47;;;;;;;;;;;14.90;68.80;;;;;;5104495;28;19935;-35
2023/11/25 04:55:13;;;;;;;;;;;14.90;68.90;;;;;;5103904;28;19916;-35
2023/11/25 04:57:39;;;;;;;;;;;14.80;68.80;;;;;;5104038;28;19934;-36
2023/11/25 05:00:10;;;;;;;;;;;14.80;68.80;;;;;;5102850;28;19944;-36
2023/11/25 05:02:39;;;;;;;;;;;14.80;68.90;;;;;;5104365;28;20252;-36
2023/11/25 05:05:05;;;;;;;;;;;14.80;69.20;;;;;;5085246;28;19911;-35
2023/11/25 05:07:31;;;;;;;;;;;14.90;69.50;;;;;;5104181;28;19951;-37
2023/11/25 05:09:57;;;;;;;;;;;15.00;69.50;;;;;;5103540;28;19908;-34
2023/11/25 05:12:23;;;;;;;;;;;15.00;69.30;;;;;;5103370;28;19966;-35
2023/11/25 05:14:52;;;;;;;;;;;14.90;69.30;;;;;;5104077;28;20387;-36
2023/11/25 05:17:18;;;;;;;;;;;14.90;69.30;;;;;;5103674;28;19912;-36
2023/11/25 05:19:44;;;;;;;;;;;14.90;69.40;;;;;;5103734;28;20431;-35
2023/11/25 05:22:10;;;;;;;;;;;14.80;69.30;;;;;;5103354;28;19940;-35
2023/11/25 05:24:36;;;;;;;;;;;14.80;69.50;;;;;;5103077;28;19965;-35
2023/11/25 05:27:02;;;;;;;;;;;14.80;69.40;;;;;;5103153;28;19954;-35
2023/11/25 05:29:28;;;;;;;;;;;14.80;69.50;;;;;;5102936;28;19908;-35
2023/11/25 05:31:53;;;;;;;;;;;14.90;69.80;;;;;;5103472;28;19933;-35
2023/11/25 05:34:20;;;;;;;;;;;15.00;69.90;;;;;;5102660;28;19948;-34
2023/11/25 05:36:46;;;;;;;;;;;14.90;69.50;;;;;;5100619;28;19965;-34
2023/11/25 05:39:13;;;;;;;;;;;14.90;69.50;;;;;;5101295;28;19912;-34
2023/11/25 05:41:40;;;;;;;;;;;14.90;69.50;;;;;;5103670;28;19912;-34
2023/11/25 05:44:07;;;;;;;;;;;14.90;69.60;;;;;;5102112;28;19924;-34
2023/11/25 05:46:33;;;;;;;;;;;14.80;69.50;;;;;;5103608;28;19997;-34
2023/11/25 05:48:59;;;;;;;;;;;14.80;69.60;;;;;;5102552;28;19918;-34
2023/11/25 05:51:32;;;;;;;;;;;14.80;69.60;;;;;;5102485;28;19951;-35
2023/11/25 05:53:58;;;;;;;;;;;14.80;69.60;;;;;;5102362;28;19916;-35
2023/11/25 05:56:26;;;;;;;;;;;14.80;69.70;;;;;;5103143;28;19919;-35
2023/11/25 05:58:53;;;;;;;;;;;14.90;70.00;;;;;;5103202;28;19919;-35
2023/11/25 06:01:19;;;;;;;;;;;14.90;69.90;;;;;;5102539;28;19936;-35
2023/11/25 06:03:46;;;;;;;;;;;14.90;69.70;;;;;;5103047;28;19959;-35
2023/11/25 06:06:12;;;;;;;;;;;14.90;69.60;;;;;;5102587;28;19912;-35
2023/11/25 06:08:38;;;;;;;;;;;14.90;69.70;;;;;;5102748;28;19972;-35
2023/11/25 06:11:04;;;;;;;;;;;14.90;69.70;;;;;;5102751;28;20265;-35
2023/11/25 06:13:30;;;;;;;;;;;14.80;69.60;;;;;;5102740;28;20448;-35
2023/11/25 06:15:56;;;;;;;;;;;14.80;69.60;;;;;;5103011;28;19982;-35
2023/11/25 06:18:24;;;;;;;;;;;14.80;69.60;;;;;;5102300;28;19991;-35
2023/11/25 06:20:50;;;;;;;;;;;14.90;70.00;;;;;;5103278;28;19919;-35
2023/11/25 06:23:16;;;;;;;;;;;15.00;70.00;;;;;;5101780;28;19923;-35
2023/11/25 06:25:45;;;;;;;;;;;15.00;69.80;;;;;;5103232;28;19943;-35
2023/11/25 06:28:17;;;;;;;;;;;14.90;69.70;;;;;;5102238;28;20575;-36
2023/11/25 06:30:43;;;;;;;;;;;14.90;69.70;;;;;;5102956;28;20062;-34
2023/11/25 06:33:09;;;;;;;;;;;14.90;69.70;;;;;;5102008;28;19919;-34
2023/11/25 06:35:36;;;;;;;;;;;14.80;69.70;;;;;;5101355;28;19931;-34
2023/11/25 06:38:04;;;;;;;;;;;14.80;69.70;;;;;;5105357;28;19912;-35
2023/11/25 06:40:30;;;;;;;;;;;14.80;69.70;;;;;;5096026;28;20265;-34
2023/11/25 06:42:55;;;;;;;;;;;14.80;69.90;;;;;;5107830;28;20399;-35
2023/11/25 06:45:22;;;;;;;;;;;15.00;70.10;;;;;;5101870;28;19912;-35
2023/11/25 06:47:50;;;;;;;;;;;15.00;70.00;;;;;;5102353;28;19915;-35
2023/11/25 06:50:16;;;;;;;;;;;15.00;69.90;;;;;;5100801;28;21844;-35
2023/11/25 06:52:41;;;;;;;;;;;14.90;69.70;;;;;;5102960;28;19975;-35
2023/11/25 06:55:09;;;;;;;;;;;14.90;69.70;;;;;;5100864;28;19955;-35
2023/11/25 06:57:35;;;;;;;;;;;14.90;69.80;;;;;;5088798;28;19916;-35
2023/11/25 07:00:01;;;;;;;;;;;14.80;69.70;;;;;;5101808;28;19904;-34
2023/11/25 07:02:27;;;;;;;;;;;14.80;69.80;;;;;;5105150;28;19961;-34
2023/11/25 07:04:53;;;;;;;;;;;14.80;69.80;;;;;;5106384;28;19945;-34
2023/11/25 07:07:18;;;;;;;;;;;14.80;69.90;;;;;;5097485;28;19913;-35
2023/11/25 07:09:45;;;;;;;;;;;15.00;70.10;;;;;;5098860;28;20003;-35
2023/11/25 07:12:14;;;;;;;;;;;15.00;70.00;;;;;;5105665;28;19958;-35
2023/11/25 07:14:41;;;;;;;;;;;15.00;69.80;;;;;;5105885;28;19981;-35
2023/11/25 07:17:06;;;;;;;;;;;14.90;69.80;;;;;;5105461;28;19908;-35
2023/11/25 07:19:32;;;;;;;;;;;14.90;69.90;;;;;;5106128;28;19916;-35
2023/11/25 07:21:58;;;;;;;;;;;14.90;69.90;;;;;;5098239;28;19904;-35
2023/11/25 07:24:27;;;;;;;;;;;14.80;69.80;;;;;;5098774;28;19956;-35
2023/11/25 07:26:54;;;;;;;;;;;14.80;69.80;;;;;;5094875;28;19908;-35
2023/11/25 07:29:20;;;;;;;;;;;14.80;69.80;;;;;;5105336;28;20563;-35
2023/11/25 07:31:47;;;;;;;;;;;14.80;69.80;;;;;;5106114;28;19904;-35
2023/11/25 07:34:13;;;;;;;;;;;14.90;70.00;;;;;;5105407;28;19920;-35
2023/11/25 07:36:42;;;;;;;;;;;15.00;70.00;;;;;;5105686;28;20372;-35
2023/11/25 07:39:07;;;;;;;;;;;15.00;69.80;;;;;;5104690;28;19915;-35
2023/11/25 07:41:33;;;;;;;;;;;14.90;69.70;;;;;;5105515;28;19908;-35
2023/11/25 07:43:59;;;;;;;;;;;14.90;69.80;;;;;;5104336;28;19934;-35
2023/11/25 07:46:25;;;;;;;;;;;14.90;69.90;;;;;;5105572;28;19916;-35
2023/11/25 07:48:51;;;;;;;;;;;14.80;69.70;;;;;;5104980;28;20006;-35
2023/11/25 07:51:18;;;;;;;;;;;14.90;69.90;;;;;;5104456;28;19923;-35
2023/11/25 07:53:43;;;;;;;;;;;14.80;69.70;;;;;;5105311;28;19965;-35
2023/11/25 07:56:10;;;;;;;;;;;14.80;70.60;;;;;;5104749;28;20452;-34
2023/11/25 07:58:36;;;;;;;;;;;15.00;70.00;;;;;;5104967;28;19934;-35
2023/11/25 08:01:02;;;;;;;;;;;14.90;69.70;;;;;;5104726;28;19908;-35
2023/11/25 08:03:27;;;;;;;;;;;15.00;69.60;;;;;;5104913;28;19925;-34
2023/11/25 08:05:53;;;;;;;;;;;14.90;69.60;;;;;;5105150;28;19919;-34
2023/11/25 08:08:19;;;;;;;;;;;14.90;69.60;;;;;;5104360;28;19920;-34
2023/11/25 08:10:45;;;;;;;;;;;14.80;69.60;;;;;;5104816;28;19916;-34
2023/11/25 08:13:11;;;;;;;;;;;14.80;69.60;;;;;;5103405;28;19930;-34
2023/11/25 08:15:37;;;;;;;;;;;14.80;69.60;;;;;;5099797;28;19985;-34
2023/11/25 08:18:03;;;;;;;;;;;14.80;69.70;;;;;;5101441;28;19920;-34
2023/11/25 08:20:29;;;;;;;;;;;14.90;69.90;;;;;;5097323;28;19912;-34
2023/11/25 08:22:55;;;;;;;;;;;15.00;69.80;;;;;;5104573;28;19919;-34
2023/11/25 08:25:21;;;;;;;;;;;15.00;69.60;;;;;;5103945;28;19912;-34
2023/11/25 08:27:49;;;;;;;;;;;15.00;69.60;;;;;;5104689;28;19918;-34
2023/11/25 08:30:15;;;;;;;;;;;14.90;69.50;;;;;;5078356;28;19958;-35
2023/11/25 08:32:41;;;;;;;;;;;14.90;69.60;;;;;;5104310;28;19912;-34
2023/11/25 08:35:08;;;;;;;;;;;14.80;69.50;;;;;;5106219;28;19978;-34
2023/11/25 08:37:35;;;;;;;;;;;14.80;69.60;;;;;;5104772;28;19908;-34
2023/11/25 08:40:01;;;;;;;;;;;14.80;69.60;;;;;;5103726;28;20400;-34
2023/11/25 08:42:28;;;;;;;;;;;14.80;69.60;;;;;;5104473;28;19966;-36
2023/11/25 08:44:54;;;;;;;;;;;15.00;69.70;;;;;;5103981;28;20388;-34
2023/11/25 08:47:20;;;;;;;;;;;15.00;69.60;;;;;;5103427;28;19919;-34
2023/11/25 08:49:48;;;;;;;;;;;15.00;69.40;;;;;;5112346;28;19944;-34
2023/11/25 08:52:14;;;;;;;;;;;15.00;69.40;;;;;;5103106;28;19908;-35
2023/11/25 08:54:40;;;;;;;;;;;14.90;69.40;;;;;;5103737;28;19923;-35
2023/11/25 08:57:09;;;;;;;;;;;14.90;69.40;;;;;;5103435;28;20372;-35
2023/11/25 08:59:35;;;;;;;;;;;14.80;69.50;;;;;;5103830;28;20422;-35
2023/11/25 09:02:04;;;;;;;;;;;14.80;69.40;;;;;;5102721;28;19934;-35
2023/11/25 09:04:35;;;;;;;;;;;14.90;69.50;;;;;;5103911;28;19911;-35
2023/11/25 09:07:01;;;;;;;;;;;15.00;69.60;;;;;;5103358;28;19919;-35
2023/11/25 09:09:27;;;;;;;;;;;15.00;70.20;;;;;;5104253;28;19919;-34
2023/11/25 09:11:56;;;;;;;;;;;15.00;69.30;;;;;;5103646;28;19947;-34
2023/11/25 09:14:22;;;;;;;;;;;15.00;69.40;;;;;;5103247;28;19991;-35
2023/11/25 09:16:50;;;;;;;;;;;14.90;69.30;;;;;;5102905;28;19912;-34
2023/11/25 09:19:17;;;;;;;;;;;14.90;69.40;;;;;;5103979;28;19916;-35
2023/11/25 09:21:44;;;;;;;;;;;14.90;69.40;;;;;;5098466;28;20281;-35
2023/11/25 09:24:10;;;;;;;;;;;14.80;69.40;;;;;;5103359;28;20477;-35
2023/11/25 09:26:36;;;;;;;;;;;14.90;69.50;;;;;;5102424;28;19919;-35
2023/11/25 09:29:02;;;;;;;;;;;15.00;69.60;;;;;;5102326;28;19919;-35
2023/11/25 09:31:28;;;;;;;;;;;15.00;69.40;;;;;;5102961;28;19908;-35
2023/11/25 09:33:54;;;;;;;;;;;15.00;69.30;;;;;;5118849;28;19983;-35
2023/11/25 09:36:22;;;;;;;;;;;15.00;69.40;;;;;;5096127;28;19919;-35
2023/11/25 09:38:48;;;;;;;;;;;14.90;69.40;;;;;;5103376;28;19919;-35
2023/11/25 09:41:15;;;;;;;;;;;14.90;69.50;;;;;;5103204;28;19911;-35
2023/11/25 09:43:41;;;;;;;;;;;14.80;69.30;;;;;;5103098;28;19939;-35
2023/11/25 09:46:06;;;;;;;;;;;14.80;69.50;;;;;;5084829;28;20531;-34
2023/11/25 09:48:33;;;;;;;;;;;14.90;69.50;;;;;;5102277;28;19911;-35
2023/11/25 09:50:59;;;;;;;;;;;15.00;69.50;;;;;;5103045;28;19908;-35
2023/11/25 09:53:25;;;;;;;;;;;15.00;69.30;;;;;;5102739;28;19912;-35
2023/11/25 09:56:11;;;;;;;;;;;15.00;69.30;;;;;;5103234;28;19916;-35
2023/11/25 09:58:37;;;;;;;;;;;14.90;69.30;;;;;;5096302;28;19912;-35
2023/11/25 10:01:11;;;;;;;;;;;14.90;69.40;;;;;;5102380;28;19992;-35
2023/11/25 10:03:39;;;;;;;;;;;14.80;69.30;;;;;;5097232;28;19912;-35
2023/11/25 10:06:05;;;;;;;;;;;14.80;69.40;;;;;;5102966;28;19978;-35
2023/11/25 10:08:32;;;;;;;;;;;14.90;69.40;;;;;;5102562;28;19975;-35
2023/11/25 10:11:05;;;;;;;;;;;15.10;69.50;;;;;;5102780;28;19908;-35
2023/11/25 10:13:32;;;;;;;;;;;15.00;69.20;;;;;;5095767;28;19969;-35
2023/11/25 10:15:59;;;;;;;;;;;15.00;69.20;;;;;;5102900;28;19908;-35
2023/11/25 10:18:25;;;;;;;;;;;15.00;69.30;;;;;;5118258;28;19908;-35
2023/11/25 10:20:57;;;;;;;;;;;14.90;69.30;;;;;;5102864;28;19927;-35
2023/11/25 10:23:23;;;;;;;;;;;14.90;69.30;;;;;;5102650;28;19938;-35
2023/11/25 10:25:51;;;;;;;;;;;14.80;69.30;;;;;;5102864;28;19908;-35
2023/11/25 10:28:27;;;;;;;;;;;14.80;69.30;;;;;;5084711;28;19916;-35
2023/11/25 10:30:53;;;;;;;;;;;14.80;69.30;;;;;;5103050;28;19912;-34
2023/11/25 10:33:21;;;;;;;;;;;15.00;69.40;;;;;;5101819;28;19967;-34
2023/11/25 10:35:47;;;;;;;;;;;15.00;69.30;;;;;;5102927;28;20379;-34
2023/11/25 10:38:15;;;;;;;;;;;15.00;69.20;;;;;;5100869;28;19930;-34
2023/11/25 10:40:41;;;;;;;;;;;15.00;69.20;;;;;;5109168;28;19908;-34
2023/11/25 10:43:08;;;;;;;;;;;14.90;69.20;;;;;;5105716;28;19923;-34
2023/11/25 10:45:34;;;;;;;;;;;14.90;69.20;;;;;;5081886;28;19931;-34
2023/11/25 10:48:00;;;;;;;;;;;14.90;69.30;;;;;;5108527;28;20439;-34
2023/11/25 10:50:26;;;;;;;;;;;14.80;69.20;;;;;;5106401;28;19907;-34
2023/11/25 10:52:52;;;;;;;;;;;14.80;69.20;;;;;;5106328;28;19915;-35
2023/11/25 10:55:18;;;;;;;;;;;15.00;69.40;;;;;;5106021;28;19963;-35
2023/11/25 10:57:44;;;;;;;;;;;15.00;69.30;;;;;;5106542;28;19908;-35
2023/11/25 11:00:10;;;;;;;;;;;15.00;69.10;;;;;;5106119;28;19908;-35
2023/11/25 11:02:42;;;;;;;;;;;15.00;69.20;;;;;;5105873;28;19912;-34
2023/11/25 11:05:09;;;;;;;;;;;14.90;69.20;;;;;;5106020;28;20272;-34
2023/11/25 11:07:39;;;;;;;;;;;14.90;69.20;;;;;;5100758;28;19908;-34
2023/11/25 11:10:07;;;;;;;;;;;14.90;69.20;;;;;;5080505;28;19919;-34
2023/11/25 11:12:35;;;;;;;;;;;14.80;69.20;;;;;;5106032;28;19912;-34
2023/11/25 11:15:05;;;;;;;;;;;14.80;69.20;;;;;;5086090;28;20368;-35
2023/11/25 11:17:39;;;;;;;;;;;14.90;69.30;;;;;;5099562;28;19908;-35
2023/11/25 11:20:11;;;;;;;;;;;15.00;69.20;;;;;;5086794;28;19993;-35
2023/11/25 11:22:39;;;;;;;;;;;15.00;69.10;;;;;;5105788;28;19983;-35
2023/11/25 11:25:08;;;;;;;;;;;15.00;69.10;;;;;;5106172;28;19904;-35
2023/11/25 11:27:40;;;;;;;;;;;14.90;69.00;;;;;;5113964;28;19915;-34
2023/11/25 11:30:13;;;;;;;;;;;14.90;69.10;;;;;;5087477;28;19907;-35
2023/11/25 11:32:39;;;;;;;;;;;14.90;69.20;;;;;;5104912;28;19975;-35
2023/11/25 11:35:08;;;;;;;;;;;14.80;69.10;;;;;;5097452;28;19947;-35
2023/11/25 11:37:41;;;;;;;;;;;14.80;69.10;;;;;;5101292;28;19916;-35
2023/11/25 11:40:07;;;;;;;;;;;14.90;69.30;;;;;;5095346;28;19916;-34
2023/11/25 11:42:34;;;;;;;;;;;15.00;69.20;;;;;;5098542;28;19918;-33
2023/11/25 11:45:17;;;;;;;;;;;15.00;69.10;;;;;;5102339;28;19912;-40
2023/11/25 11:47:47;;;;;;;;;;;15.00;69.10;;;;;;5091613;28;19995;-35
2023/11/25 11:50:15;;;;;;;;;;;14.90;69.10;;;;;;5088233;28;19960;-34
2023/11/25 11:52:48;;;;;;;;;;;14.90;69.20;;;;;;5081326;28;19908;-34
2023/11/25 11:55:34;;;;;;;;;;;14.80;69.10;;;;;;5104325;28;19919;-34
2023/11/25 11:58:04;;;;;;;;;;;14.80;69.10;;;;;;5097796;28;19915;-35
2023/11/25 12:00:32;;;;;;;;;;;14.90;69.30;;;;;;5105075;28;19919;-35
2023/11/25 12:03:00;;;;;;;;;;;15.00;69.30;;;;;;5104891;28;19908;-35
2023/11/25 12:05:25;;;;;;;;;;;15.00;69.10;;;;;;5097501;28;19912;-34
2023/11/25 12:07:51;;;;;;;;;;;15.00;69.10;;;;;;5104156;28;19918;-34
2023/11/25 12:10:19;;;;;;;;;;;14.90;69.10;;;;;;5105184;28;19916;-34
2023/11/25 12:12:45;;;;;;;;;;;14.90;69.20;;;;;;5105776;28;19955;-34
2023/11/25 12:15:11;;;;;;;;;;;14.80;69.10;;;;;;5105703;28;19916;-34
2023/11/25 12:17:39;;;;;;;;;;;14.80;69.10;;;;;;5105167;28;19931;-34
2023/11/25 12:20:08;;;;;;;;;;;14.80;69.10;;;;;;5104205;28;19932;-34
2023/11/25 12:22:34;;;;;;;;;;;14.90;69.20;;;;;;5101957;28;19995;-34
2023/11/25 12:25:00;;;;;;;;;;;15.00;69.20;;;;;;5105484;28;19912;-34
2023/11/25 12:27:27;;;;;;;;;;;15.00;69.20;;;;;;5104706;28;19908;-34
2023/11/25 12:29:53;;;;;;;;;;;14.90;69.10;;;;;;5119687;28;20010;-34
2023/11/25 12:32:19;;;;;;;;;;;14.90;69.00;;;;;;5119964;28;19911;-34
2023/11/25 12:34:45;;;;;;;;;;;14.90;69.90;;;;;;5091153;28;19920;-34
2023/11/25 12:37:12;;;;;;;;;;;14.90;69.20;;;;;;5099720;28;19946;-34
2023/11/25 12:39:39;;;;;;;;;;;14.80;69.20;;;;;;5086083;28;20002;-34
2023/11/25 12:42:05;;;;;;;;;;;14.80;69.10;;;;;;5086749;28;19915;-34
2023/11/25 12:44:50;;;;;;;;;;;15.00;69.30;;;;;;5108585;28;19920;-34
2023/11/25 12:47:16;;;;;;;;;;;15.00;69.20;;;;;;5096534;28;20481;-34
2023/11/25 12:49:42;;;;;;;;;;;15.00;69.00;;;;;;5098456;28;19919;-34
2023/11/25 12:52:22;;;;;;;;;;;15.00;69.10;;;;;;5098438;28;19957;-34
2023/11/25 12:54:49;;;;;;;;;;;15.00;69.10;;;;;;5092040;28;19928;-34
2023/11/25 12:57:15;;;;;;;;;;;14.90;69.10;;;;;;5094509;28;19921;-34
2023/11/25 12:59:41;;;;;;;;;;;14.90;69.10;;;;;;5102789;28;19908;-34
2023/11/25 13:02:11;;;;;;;;;;;14.80;69.00;;;;;;5097164;28;19919;-34
2023/11/25 13:04:46;;;;;;;;;;;14.80;69.10;;;;;;5098707;28;19937;-34
2023/11/25 13:07:27;;;;;;;;;;;15.00;69.20;;;;;;5100888;28;19912;-34
2023/11/25 13:09:53;;;;;;;;;;;15.00;69.10;;;;;;5096162;28;19908;-34
2023/11/25 13:12:19;;;;;;;;;;;15.00;69.10;;;;;;5095655;28;19919;-34
2023/11/25 13:14:45;;;;;;;;;;;15.00;69.10;;;;;;5098282;28;19921;-35
2023/11/25 13:17:11;;;;;;;;;;;14.90;69.00;;;;;;5101850;28;19908;-34
2023/11/25 13:19:36;;;;;;;;;;;14.90;69.00;;;;;;5102894;28;19912;-34
2023/11/25 13:22:03;;;;;;;;;;;14.90;69.10;;;;;;5099007;28;20376;-34
2023/11/25 13:24:29;;;;;;;;;;;14.80;69.00;;;;;;5102904;28;19923;-34
2023/11/25 13:26:54;;;;;;;;;;;14.80;69.00;;;;;;5106673;28;19912;-34
2023/11/25 13:29:20;;;;;;;;;;;14.90;69.10;;;;;;5102244;28;20018;-35
2023/11/25 13:31:46;;;;;;;;;;;15.10;69.00;;;;;;5103617;28;19912;-34
2023/11/25 13:34:13;;;;;;;;;;;15.00;68.90;;;;;;5101254;28;19920;-34
2023/11/25 13:36:40;;;;;;;;;;;15.00;68.90;;;;;;5103354;28;19947;-35
2023/11/25 13:39:06;;;;;;;;;;;15.00;69.00;;;;;;5095871;28;19916;-34
2023/11/25 13:41:32;;;;;;;;;;;14.90;69.00;;;;;;5103060;28;20642;-34
2023/11/25 13:43:58;;;;;;;;;;;14.90;69.00;;;;;;5102976;28;20339;-34
2023/11/25 13:46:25;;;;;;;;;;;14.90;69.10;;;;;;5102967;28;19912;-35
2023/11/25 13:48:51;;;;;;;;;;;14.80;68.90;;;;;;5098262;28;19912;-34
2023/11/25 13:51:16;;;;;;;;;;;15.00;69.10;;;;;;5101682;28;19941;-34
2023/11/25 13:53:42;;;;;;;;;;;15.10;69.00;;;;;;5102294;28;19916;-34
2023/11/25 13:56:10;;;;;;;;;;;15.10;68.80;;;;;;5102002;28;19955;-34
2023/11/25 13:58:36;;;;;;;;;;;15.00;68.80;;;;;;5103442;28;19915;-34
2023/11/25 14:01:02;;;;;;;;;;;15.00;68.80;;;;;;5101830;28;19916;-34
2023/11/25 14:03:28;;;;;;;;;;;15.00;68.80;;;;;;5102385;28;20367;-34
2023/11/25 14:05:55;;;;;;;;;;;14.90;68.80;;;;;;5102694;28;19912;-34
2023/11/25 14:08:27;;;;;;;;;;;14.90;68.80;;;;;;5097887;28;19916;-34
2023/11/25 14:10:55;;;;;;;;;;;14.90;68.80;;;;;;5102831;28;20006;-35
2023/11/25 14:13:21;;;;;;;;;;;14.90;68.80;;;;;;5103220;28;20633;-34
2023/11/25 14:15:47;;;;;;;;;;;15.00;69.00;;;;;;5102900;28;19982;-35
2023/11/25 14:18:13;;;;;;;;;;;15.10;68.90;;;;;;5102573;28;19908;-34